To NAV CANADA Home Page Login to a new session Search on AWWS site Feedback and Comments Disclaimer Vers la page française équivalente Tips FAQ What's new on the site To the Forecasts and Observations / NOTAM section To "File a Flight Plan" website Publications and other links Update of the User's profile FIC Telephone Numbers My Weather Data Folder Route Weather Data Regional Weather Data Local Weather Data To the Forecasts and Observations / NOTAM section
Request Generated 12/10/2016 at 16:31:08 UTC . Weather information available at that time is displayed.

METAR/TAF

CAPE DORSET/NU    (show WxCam)

SPECI CYTE 101629Z AUTO 25008KT 9SM -SN OVC014 M13/M15 A2980 RMK
SLP098=
SPECI CYTE 101627Z AUTO 25010KT 9SM OVC014 M13/M15 A2980 RMK SLP098=
METAR CYTE 101600Z AUTO 27005KT 9SM -SN OVC014 M13/M15 A2981 RMK
SLP101=
SPECI CYTE 101540Z AUTO 28007KT 9SM -SN OVC014 M13/M15 A2981 RMK
SLP102=
SPECI CYTE 101538Z AUTO 27007KT 9SM OVC012 M13/M15 A2981 RMK SLP102=
METAR CYTE 101500Z AUTO 27008KT 9SM -SN OVC012 M13/M15 A2982 RMK
SLP105=
SPECI CYTE 101420Z AUTO 26011KT 7SM -SN OVC012 M13/M15 A2981 RMK
SLP104=
SPECI CYTE 101416Z AUTO 25008KT 3SM -SN OVC012 M13/M15 A2982 RMK
SLP105=
SPECI CYTE 101409Z AUTO 25008KT 2 1/2SM -SN OVC014 M13/M15 A2982 RMK
VIS VRB 2-3 SLP105=
METAR CYTE 101400Z AUTO 25009KT 5SM -SN OVC014 M13/M15 A2982 RMK
SLP106=

TAF CYTE 101238Z 1013/1101 VRB03KT P6SM -SN OVC015 TEMPO 1013/1020
2SM -SN VV008
RMK FCST BASED ON AUTO OBS. NXT FCST BY 101900Z=
Your time UTC time
Weather data provided by Environment Canada and NAV CANADA